createdAt,value
2019-03-29T00:00:24.560Z,9.20
2019-03-29T00:03:32.316Z,9.18
2019-03-29T00:06:40.372Z,9.26
2019-03-29T00:09:48.121Z,9.16
2019-03-29T00:12:57.039Z,9.21
2019-03-29T00:16:14.632Z,9.27
2019-03-29T00:19:20.617Z,9.18
2019-03-29T00:22:28.280Z,9.24
2019-03-29T00:25:36.015Z,9.21
2019-03-29T00:28:52.980Z,9.21
2019-03-29T00:32:00.805Z,9.09
2019-03-29T00:35:08.712Z,9.14
2019-03-29T00:38:25.721Z,9.20
2019-03-29T00:41:33.667Z,9.19
2019-03-29T00:44:41.892Z,9.17
2019-03-29T00:47:49.553Z,9.10
2019-03-29T00:50:58.325Z,9.15
2019-03-29T00:54:06.718Z,9.18
2019-03-29T00:57:14.396Z,9.12
2019-03-29T01:00:22.444Z,9.10
2019-03-29T01:03:39.313Z,9.09
2019-03-29T01:06:56.105Z,9.02
2019-03-29T01:10:13.081Z,8.98
2019-03-29T01:13:21.147Z,9.03
2019-03-29T01:16:28.931Z,9.02
2019-03-29T01:19:45.820Z,9.13
2019-03-29T01:22:53.656Z,9.04
2019-03-29T01:26:01.407Z,9.06
2019-03-29T01:29:18.937Z,9.11
2019-03-29T01:32:26.763Z,9.10
2019-03-29T01:35:34.588Z,9.06
2019-03-29T01:38:42.987Z,9.13
2019-03-29T01:42:00.196Z,9.05
2019-03-29T01:45:09.154Z,9.00
2019-03-29T01:48:16.847Z,9.06
2019-03-29T01:51:24.631Z,8.95
2019-03-29T01:54:41.672Z,8.99
2019-03-29T01:57:49.507Z,8.95
2019-03-29T02:00:57.257Z,8.95
2019-03-29T02:04:06.044Z,8.88
2019-03-29T02:07:23.417Z,8.87
2019-03-29T02:10:31.330Z,8.86
2019-03-29T02:13:39.269Z,8.86
2019-03-29T02:16:56.267Z,8.99
2019-03-29T02:20:04.342Z,8.89
2019-03-29T02:23:12.097Z,8.77
2019-03-29T02:26:19.282Z,8.89
2019-03-29T02:29:27.041Z,8.90
2019-03-29T02:32:35.016Z,8.84
2019-03-29T02:35:52.179Z,9.08
2019-03-29T02:39:00.102Z,8.96
2019-03-29T02:42:07.831Z,8.95
2019-03-29T02:45:25.326Z,8.98
2019-03-29T02:48:33.232Z,9.07
2019-03-29T02:51:41.021Z,9.07
2019-03-29T02:54:48.797Z,9.06
2019-03-29T02:57:56.548Z,9.04
2019-03-29T03:01:13.669Z,9.03
2019-03-29T03:04:21.510Z,9.08
2019-03-29T03:07:29.385Z,9.07
2019-03-29T03:10:46.448Z,9.13
2019-03-29T03:13:54.107Z,9.03
2019-03-29T03:17:02.201Z,8.93
2019-03-29T03:20:20.150Z,9.06
2019-03-29T03:23:28.091Z,8.93
2019-03-29T03:26:36.090Z,9.00
2019-03-29T03:29:42.782Z,9.03
2019-03-29T03:32:50.635Z,9.01
2019-03-29T03:35:58.450Z,9.03
2019-03-29T03:39:30.555Z,9.03
2019-03-29T03:42:25.287Z,9.06
2019-03-29T03:45:42.554Z,9.10
2019-03-29T03:48:50.424Z,9.01
2019-03-29T03:51:58.372Z,9.06
2019-03-29T03:55:15.224Z,9.12
2019-03-29T03:58:23.305Z,9.00
2019-03-29T04:01:31.267Z,8.90
2019-03-29T04:04:39.038Z,8.92
2019-03-29T04:07:46.690Z,8.95
2019-03-29T04:10:54.546Z,9.09
2019-03-29T04:14:02.199Z,9.06
2019-03-29T04:17:09.886Z,9.00
2019-03-29T04:20:17.707Z,9.05
2019-03-29T04:23:25.417Z,9.02
2019-03-29T04:26:33.343Z,9.01
2019-03-29T04:29:50.330Z,9.02
2019-03-29T04:33:11.101Z,9.05
2019-03-29T04:36:17.035Z,9.05
2019-03-29T04:39:24.744Z,9.05
2019-03-29T04:42:41.738Z,9.10
2019-03-29T04:45:59.043Z,9.08
2019-03-29T04:49:06.867Z,9.00
2019-03-29T04:52:14.535Z,8.98
2019-03-29T04:55:31.787Z,9.06
2019-03-29T04:58:39.443Z,9.09
2019-03-29T05:01:47.443Z,9.11
2019-03-29T05:04:55.279Z,9.09
2019-03-29T05:08:03.199Z,9.09
2019-03-29T05:11:20.309Z,9.09
2019-03-29T05:14:28.051Z,9.01
2019-03-29T05:17:35.954Z,9.06
2019-03-29T05:20:52.901Z,9.09
2019-03-29T05:24:09.955Z,9.16
2019-03-29T05:27:17.965Z,9.15
2019-03-29T05:30:25.849Z,9.14
2019-03-29T05:33:33.772Z,9.06
2019-03-29T05:36:41.783Z,9.14
2019-03-29T05:39:49.682Z,9.14
2019-03-29T05:42:57.432Z,9.12
2019-03-29T05:46:14.557Z,9.23
2019-03-29T05:49:22.335Z,9.14
2019-03-29T05:52:30.128Z,9.21
2019-03-29T05:55:48.455Z,9.22
2019-03-29T05:59:05.802Z,9.21
2019-03-29T06:02:13.617Z,9.23
2019-03-29T06:05:21.535Z,9.31
2019-03-29T06:08:44.570Z,9.43
2019-03-29T06:11:52.384Z,9.32
2019-03-29T06:15:00.389Z,9.34
2019-03-29T06:18:17.289Z,9.48
2019-03-29T06:21:25.252Z,9.44
2019-03-29T06:24:33.000Z,9.43
2019-03-29T06:27:56.479Z,9.44
2019-03-29T06:31:04.266Z,9.45
2019-03-29T06:34:12.331Z,9.39
2019-03-29T06:37:20.916Z,9.57
2019-03-29T06:40:28.681Z,9.48
2019-03-29T06:43:36.513Z,9.54
2019-03-29T06:46:53.638Z,9.59
2019-03-29T06:50:01.387Z,9.60
2019-03-29T06:53:09.428Z,9.55
2019-03-29T06:56:26.389Z,9.61
2019-03-29T06:59:34.240Z,9.67
2019-03-29T07:02:41.921Z,9.64
2019-03-29T07:05:59.214Z,9.71
2019-03-29T07:09:07.736Z,9.64
2019-03-29T07:12:24.894Z,9.92
2019-03-29T07:15:32.641Z,9.92
2019-03-29T07:18:40.452Z,9.98
2019-03-29T07:21:57.576Z,10.26
2019-03-29T07:25:05.903Z,10.29
2019-03-29T07:28:13.477Z,10.09
2019-03-29T07:31:30.283Z,10.46
2019-03-29T07:34:38.128Z,10.29
2019-03-29T07:37:46.082Z,10.41
2019-03-29T07:41:03.153Z,10.38
2019-03-29T07:44:10.964Z,10.24
2019-03-29T07:47:18.899Z,10.30
2019-03-29T07:50:35.972Z,10.46
2019-03-29T07:53:45.114Z,10.39
2019-03-29T07:56:52.970Z,10.59
2019-03-29T08:00:00.754Z,10.61
2019-03-29T08:03:08.484Z,10.85
2019-03-29T08:06:16.255Z,10.95
2019-03-29T08:09:24.122Z,10.90
2019-03-29T08:12:32.088Z,10.83
2019-03-29T08:15:38.351Z,10.67
2019-03-29T08:18:46.114Z,10.84
2019-03-29T08:21:53.845Z,10.67
2019-03-29T08:25:01.524Z,10.91
2019-03-29T08:28:09.517Z,10.73
2019-03-29T08:31:17.310Z,10.86
2019-03-29T08:34:36.003Z,10.87
2019-03-29T08:37:44.052Z,10.72
2019-03-29T08:40:51.911Z,10.88
2019-03-29T08:43:59.744Z,11.06
2019-03-29T08:47:07.679Z,11.05
2019-03-29T08:50:24.802Z,11.23
2019-03-29T08:53:32.674Z,11.12
2019-03-29T08:56:40.625Z,11.17
2019-03-29T08:59:57.633Z,11.23
2019-03-29T09:03:05.682Z,11.14
2019-03-29T09:06:13.530Z,11.25
2019-03-29T09:09:21.659Z,11.44
2019-03-29T09:12:29.389Z,11.44
2019-03-29T09:15:37.348Z,11.35
2019-03-29T09:18:45.098Z,11.59
2019-03-29T09:22:02.278Z,11.35
2019-03-29T09:25:10.190Z,11.63
2019-03-29T09:28:18.063Z,11.60
2019-03-29T09:31:35.054Z,11.60
2019-03-29T09:34:42.965Z,11.58
2019-03-29T09:37:50.708Z,11.55
2019-03-29T09:41:07.838Z,11.46
2019-03-29T09:44:15.773Z,11.80
2019-03-29T09:47:23.448Z,11.84
2019-03-29T09:50:40.697Z,11.80
2019-03-29T09:53:48.400Z,11.77
2019-03-29T09:56:56.518Z,11.84
2019-03-29T10:00:17.999Z,11.95
2019-03-29T10:03:14.361Z,12.00
2019-03-29T10:06:22.209Z,12.07
2019-03-29T10:09:30.101Z,11.85
2019-03-29T10:12:47.011Z,11.97
2019-03-29T10:15:54.897Z,11.99
2019-03-29T10:19:02.824Z,12.10
2019-03-29T10:22:20.007Z,12.24
2019-03-29T10:25:27.804Z,12.01
2019-03-29T10:28:35.564Z,12.25
2019-03-29T10:31:52.582Z,12.19
2019-03-29T10:35:00.448Z,12.39
2019-03-29T10:38:08.322Z,12.54
2019-03-29T10:41:25.270Z,12.51
2019-03-29T10:44:42.063Z,12.76
2019-03-29T10:47:50.004Z,12.59
2019-03-29T10:50:57.809Z,12.56
2019-03-29T10:54:14.966Z,12.78
2019-03-29T10:57:22.746Z,12.78
2019-03-29T11:00:38.213Z,12.87
2019-03-29T11:03:46.091Z,12.89
2019-03-29T11:06:53.861Z,12.99
2019-03-29T11:10:01.791Z,12.90
2019-03-29T11:13:18.869Z,13.06
2019-03-29T11:16:26.812Z,13.02
2019-03-29T11:19:34.606Z,12.81
2019-03-29T11:22:51.795Z,13.24
2019-03-29T11:25:59.717Z,13.16
2019-03-29T11:29:07.393Z,13.18
2019-03-29T11:32:24.655Z,13.34
2019-03-29T11:35:32.498Z,13.24
2019-03-29T11:38:40.448Z,13.42
2019-03-29T11:41:57.482Z,13.43
2019-03-29T11:45:06.271Z,13.54
2019-03-29T11:48:14.097Z,13.58
2019-03-29T11:51:21.977Z,13.76
2019-03-29T11:54:39.012Z,13.73
2019-03-29T11:57:46.959Z,13.82
2019-03-29T12:00:55.046Z,13.89
2019-03-29T12:04:02.793Z,14.02
2019-03-29T12:07:10.635Z,14.04
2019-03-29T12:10:27.728Z,14.23
2019-03-29T12:13:41.414Z,14.54
2019-03-29T12:16:45.148Z,14.86
2019-03-29T12:20:08.372Z,15.54
2019-03-29T12:23:16.364Z,16.22
2019-03-29T12:26:24.240Z,16.22
2019-03-29T12:29:32.319Z,16.18
2019-03-29T12:32:40.247Z,16.44
2019-03-29T12:35:46.534Z,16.98
2019-03-29T12:38:54.230Z,16.99
2019-03-29T12:42:11.359Z,17.45
2019-03-29T12:45:19.128Z,17.26
2019-03-29T12:48:27.113Z,16.86
2019-03-29T12:51:46.653Z,17.85
2019-03-29T12:54:53.892Z,18.28
2019-03-29T12:58:01.562Z,18.47
2019-03-29T13:01:18.608Z,18.59
2019-03-29T13:04:26.480Z,19.02
2019-03-29T13:07:34.693Z,19.30
2019-03-29T13:10:42.829Z,18.98
2019-03-29T13:13:50.568Z,19.06
2019-03-29T13:16:56.637Z,19.10
2019-03-29T13:20:04.907Z,19.32
2019-03-29T13:23:12.865Z,19.15
2019-03-29T13:26:20.777Z,19.48
2019-03-29T13:29:37.849Z,19.14
2019-03-29T13:32:45.764Z,18.58
2019-03-29T13:35:53.617Z,18.69
2019-03-29T13:39:10.725Z,19.50
2019-03-29T13:42:18.490Z,19.16
2019-03-29T13:45:27.945Z,19.41
2019-03-29T13:48:45.009Z,19.13
2019-03-29T13:52:02.287Z,19.52
2019-03-29T13:55:10.885Z,19.59
2019-03-29T13:58:18.834Z,19.53
2019-03-29T14:01:25.582Z,19.72
2019-03-29T14:04:33.327Z,19.62
2019-03-29T14:07:41.087Z,19.43
2019-03-29T14:10:58.350Z,19.83
2019-03-29T14:14:06.139Z,19.67
2019-03-29T14:17:14.127Z,18.83
2019-03-29T14:20:32.352Z,19.91
2019-03-29T14:23:39.395Z,20.16
2019-03-29T14:26:56.408Z,19.78
2019-03-29T14:30:13.636Z,20.03
2019-03-29T14:33:21.638Z,19.13
2019-03-29T14:36:29.307Z,18.76
2019-03-29T14:39:37.406Z,19.32
2019-03-29T14:42:45.132Z,19.32
2019-03-29T14:46:02.163Z,19.56
2019-03-29T14:49:09.992Z,19.88
2019-03-29T14:52:17.740Z,18.92
2019-03-29T14:55:34.983Z,19.07
2019-03-29T14:58:42.935Z,19.14
2019-03-29T15:01:50.989Z,19.32
2019-03-29T15:04:58.841Z,19.14
2019-03-29T15:08:06.528Z,19.47
2019-03-29T15:11:23.828Z,18.89
2019-03-29T15:14:31.778Z,18.68
2019-03-29T15:17:39.620Z,18.99
2019-03-29T15:20:56.686Z,18.95
2019-03-29T15:24:04.500Z,18.98
2019-03-29T15:27:12.325Z,18.67
2019-03-29T15:30:29.606Z,18.66
2019-03-29T15:33:37.501Z,18.71
2019-03-29T15:36:45.244Z,18.67
2019-03-29T15:40:02.268Z,18.83
2019-03-29T15:43:09.951Z,17.94
2019-03-29T15:46:17.932Z,18.42
2019-03-29T15:49:35.111Z,18.41
2019-03-29T15:52:42.303Z,18.19
2019-03-29T15:55:50.102Z,17.90
2019-03-29T15:58:57.891Z,17.82
2019-03-29T16:02:15.193Z,17.70
2019-03-29T16:05:23.154Z,17.74
2019-03-29T16:08:31.076Z,17.61
2019-03-29T16:11:48.113Z,17.33
2019-03-29T16:14:55.974Z,16.65
2019-03-29T16:18:03.982Z,16.34
2019-03-29T16:21:11.828Z,16.76
2019-03-29T16:24:19.596Z,16.58
2019-03-29T16:27:36.758Z,16.50
2019-03-29T16:30:44.914Z,16.02
2019-03-29T16:33:52.764Z,16.38
2019-03-29T16:37:00.554Z,16.15
2019-03-29T16:40:07.043Z,16.11
2019-03-29T16:43:23.974Z,16.12
2019-03-29T16:46:32.083Z,16.06
2019-03-29T16:49:40.077Z,16.06
2019-03-29T16:52:47.933Z,16.03
2019-03-29T16:55:55.886Z,16.01
2019-03-29T16:59:03.678Z,16.01
2019-03-29T17:02:11.598Z,15.74
2019-03-29T17:05:28.852Z,15.57
2019-03-29T17:08:36.662Z,15.68
2019-03-29T17:11:44.440Z,15.68
2019-03-29T17:15:01.659Z,15.56
2019-03-29T17:18:09.333Z,15.50
2019-03-29T17:21:17.250Z,15.36
2019-03-29T17:24:34.501Z,15.14
2019-03-29T17:27:42.732Z,15.14
2019-03-29T17:30:55.748Z,14.92
2019-03-29T17:34:03.659Z,14.72
2019-03-29T17:37:20.794Z,14.60
2019-03-29T17:40:28.613Z,14.50
2019-03-29T17:43:36.378Z,14.27
2019-03-29T17:46:53.640Z,14.10
2019-03-29T17:50:01.390Z,13.95
2019-03-29T17:53:09.325Z,13.81
2019-03-29T17:56:26.856Z,13.72
2019-03-29T17:59:34.541Z,13.56
2019-03-29T18:02:42.555Z,13.49
2019-03-29T18:05:50.369Z,13.37
2019-03-29T18:08:58.295Z,13.24
2019-03-29T18:12:15.282Z,13.16
2019-03-29T18:15:23.298Z,13.02
2019-03-29T18:18:31.334Z,13.00
2019-03-29T18:21:39.098Z,12.88
2019-03-29T18:24:47.160Z,12.80
2019-03-29T18:28:04.063Z,12.73
2019-03-29T18:31:11.899Z,12.63
2019-03-29T18:34:19.816Z,12.55
2019-03-29T18:37:36.971Z,12.53
2019-03-29T18:40:44.821Z,12.39
2019-03-29T18:43:52.729Z,12.31
2019-03-29T18:47:09.677Z,12.29
2019-03-29T18:50:17.716Z,12.06
2019-03-29T18:53:25.989Z,12.04
2019-03-29T18:56:33.892Z,11.90
2019-03-29T18:59:51.247Z,11.89
2019-03-29T19:02:59.338Z,11.76
2019-03-29T19:06:07.192Z,11.67
2019-03-29T19:09:15.139Z,11.71
2019-03-29T19:12:22.966Z,11.67
2019-03-29T19:15:40.089Z,11.66
2019-03-29T19:18:48.007Z,11.69
2019-03-29T19:21:55.777Z,11.63
2019-03-29T19:25:12.946Z,11.54
2019-03-29T19:28:19.015Z,11.42
2019-03-29T19:31:26.866Z,11.30
2019-03-29T19:34:44.092Z,11.34
2019-03-29T19:37:52.173Z,11.24
2019-03-29T19:40:59.934Z,11.16
2019-03-29T19:44:07.861Z,11.13
2019-03-29T19:47:15.780Z,10.95
2019-03-29T19:50:32.767Z,10.94
2019-03-29T19:53:40.650Z,10.81
2019-03-29T19:56:48.550Z,10.81
2019-03-29T20:00:06.753Z,10.87
2019-03-29T20:03:23.960Z,10.66
2019-03-29T20:06:32.755Z,10.69
2019-03-29T20:09:42.036Z,10.57
2019-03-29T20:12:50.283Z,10.45
2019-03-29T20:15:58.209Z,10.44
2019-03-29T20:19:05.991Z,10.37
2019-03-29T20:22:23.155Z,10.47
2019-03-29T20:25:30.976Z,10.32
2019-03-29T20:28:38.938Z,10.31
2019-03-29T20:31:55.935Z,10.32
2019-03-29T20:35:03.887Z,10.21
2019-03-29T20:38:11.805Z,10.06
2019-03-29T20:41:28.814Z,10.12
2019-03-29T20:44:36.741Z,10.08
2019-03-29T20:47:44.980Z,10.08
2019-03-29T20:50:52.743Z,10.00
2019-03-29T20:54:00.679Z,9.94
2019-03-29T20:57:17.617Z,9.89
2019-03-29T21:00:25.980Z,9.84
2019-03-29T21:03:43.091Z,9.86
2019-03-29T21:06:51.099Z,9.68
2019-03-29T21:09:58.879Z,9.71
2019-03-29T21:13:15.954Z,9.77
2019-03-29T21:16:24.007Z,9.68
2019-03-29T21:19:31.868Z,9.57
2019-03-29T21:22:39.760Z,9.58
2019-03-29T21:25:47.595Z,9.71
2019-03-29T21:29:04.593Z,9.84
2019-03-29T21:32:12.441Z,9.70
2019-03-29T21:35:20.296Z,9.51
2019-03-29T21:38:28.664Z,9.52
2019-03-29T21:41:36.606Z,9.35
2019-03-29T21:44:53.476Z,9.38
2019-03-29T21:48:16.042Z,9.36
2019-03-29T21:51:10.970Z,9.29
2019-03-29T21:54:18.871Z,9.11
2019-03-29T21:57:26.718Z,8.94
2019-03-29T22:00:43.945Z,9.10
2019-03-29T22:03:51.887Z,9.08
2019-03-29T22:06:59.865Z,9.01
2019-03-29T22:10:08.472Z,8.96
2019-03-29T22:13:25.501Z,9.08
2019-03-29T22:16:32.035Z,8.97
2019-03-29T22:19:39.779Z,8.91
2019-03-29T22:22:56.602Z,8.79
2019-03-29T22:26:04.460Z,8.72
2019-03-29T22:29:13.089Z,8.76
2019-03-29T22:32:21.640Z,8.72
2019-03-29T22:35:29.334Z,8.72
2019-03-29T22:38:37.277Z,8.80
2019-03-29T22:41:45.300Z,8.62
2019-03-29T22:44:53.347Z,8.74
2019-03-29T22:48:10.258Z,8.65
2019-03-29T22:51:18.352Z,8.51
2019-03-29T22:54:26.171Z,8.53
2019-03-29T22:57:33.944Z,8.42
2019-03-29T23:00:45.268Z,8.47
2019-03-29T23:03:53.424Z,8.44
2019-03-29T23:07:01.272Z,8.42
2019-03-29T23:10:09.313Z,8.41
2019-03-29T23:13:17.145Z,8.33
2019-03-29T23:16:34.293Z,8.35
2019-03-29T23:19:41.947Z,8.18
2019-03-29T23:22:49.717Z,8.23
2019-03-29T23:25:57.448Z,8.09
2019-03-29T23:29:04.266Z,8.11
2019-03-29T23:32:21.279Z,8.04
2019-03-29T23:35:29.043Z,7.89
2019-03-29T23:38:36.861Z,7.96
2019-03-29T23:41:54.061Z,8.09
2019-03-29T23:45:01.912Z,7.92
2019-03-29T23:48:09.712Z,7.99
2019-03-29T23:51:27.224Z,8.22
2019-03-29T23:54:34.975Z,8.05
2019-03-29T23:57:42.935Z,8.07
